Time;durP1;ratioP1;P1;durP2;ratioP2;P2;SDS_P1;SDS_P2;PMS_P1;PMS_P2;Temp;Humidity;BMP_temperature;BMP_pressure;BME280_temperature;BME280_humidity;BME280_pressure;Samples;Min_cycle;Max_cycle;Signal;HPM_P1;HPM_P2
2021/08/11 00:02:36;;;;;;;7.17;4.00;;;;;;;21.58;84.79;100065.13;6244818;28;20144;-75
2021/08/11 00:05:36;;;;;;;5.60;3.63;;;;;;;21.62;83.78;100061.16;6261140;28;20048;-75
2021/08/11 00:08:37;;;;;;;9.10;3.43;;;;;;;21.61;85.13;100054.19;6228154;28;20045;-75
2021/08/11 00:11:38;;;;;;;7.77;3.77;;;;;;;21.54;85.89;100058.50;6244676;28;20047;-75
2021/08/11 00:14:40;;;;;;;4.70;3.70;;;;;;;21.55;84.92;100061.97;6244593;28;20053;-75
2021/08/11 00:17:41;;;;;;;6.65;3.40;;;;;;;21.47;86.90;100055.66;6245825;28;20072;-75
2021/08/11 00:20:42;;;;;;;5.87;3.63;;;;;;;21.45;86.46;100060.28;6246959;28;20042;-74
2021/08/11 00:23:43;;;;;;;4.80;3.45;;;;;;;21.48;85.60;100051.19;6272630;28;20038;-75
2021/08/11 00:26:46;;;;;;;6.13;3.40;;;;;;;21.51;85.98;100056.16;6250929;28;20076;-75
2021/08/11 00:29:47;;;;;;;9.23;3.90;;;;;;;21.50;84.97;100052.69;6217108;28;20046;-75
2021/08/11 00:32:48;;;;;;;4.73;3.30;;;;;;;21.50;84.96;100047.38;6232795;28;20057;-75
2021/08/11 00:35:49;;;;;;;6.07;3.70;;;;;;;21.45;85.07;100047.03;6249710;28;20057;-74
2021/08/11 00:38:49;;;;;;;9.50;4.30;;;;;;;21.45;86.04;100048.84;6250503;28;20068;-74
2021/08/11 00:41:50;;;;;;;4.57;3.60;;;;;;;21.39;85.75;100045.00;6249341;28;20077;-74
2021/08/11 00:44:51;;;;;;;12.63;4.50;;;;;;;21.38;85.48;100047.84;6250394;28;20073;-75
2021/08/11 00:47:54;;;;;;;5.53;3.87;;;;;;;21.33;86.25;100050.94;6232740;28;20045;-75
2021/08/11 00:50:57;;;;;;;9.50;4.32;;;;;;;21.38;84.86;100058.44;6250162;28;20103;-75
2021/08/11 00:54:00;;;;;;;4.90;3.95;;;;;;;21.32;85.60;100059.94;6248875;28;20050;-74
2021/08/11 00:57:04;;;;;;;7.00;4.40;;;;;;;21.31;86.62;100067.06;6249004;28;20278;-74
2021/08/11 01:00:06;;;;;;;10.32;4.00;;;;;;;21.32;85.61;100066.06;6248932;28;20045;-75
2021/08/11 01:03:10;;;;;;;;;;;;;;;21.30;85.98;100059.25;6249115;28;20120;-75
2021/08/11 01:06:12;;;;;;;6.18;3.72;;;;;;;21.24;85.79;100073.16;6249760;28;19921;-75
2021/08/11 01:09:15;;;;;;;5.47;3.85;;;;;;;21.20;85.86;100067.34;6248378;28;20489;-75
2021/08/11 01:12:16;;;;;;;5.97;3.88;;;;;;;21.13;86.04;100072.47;6231995;28;20427;-74
2021/08/11 01:15:17;;;;;;;5.95;3.55;;;;;;;21.11;86.51;100060.38;6232217;28;20091;-75
2021/08/11 01:18:19;;;;;;;5.10;3.60;;;;;;;21.06;86.59;100067.97;6232048;28;20045;-75
2021/08/11 01:21:32;;;;;;;5.50;3.83;;;;;;;21.04;86.35;100067.31;6248638;28;20056;-74
2021/08/11 01:24:36;;;;;;;4.88;3.60;;;;;;;21.00;85.98;100074.78;6249317;28;20442;-74
2021/08/11 01:28:14;;;;;;;6.57;3.40;;;;;;;21.02;85.83;100069.28;6249623;28;20045;-75
2021/08/11 01:31:23;;;;;;;9.23;3.50;;;;;;;21.03;85.63;100073.63;6247968;28;20107;-75
2021/08/11 01:34:44;;;;;;;6.00;3.35;;;;;;;20.98;85.77;100071.44;6248302;28;20408;-74
2021/08/11 01:37:51;;;;;;;6.67;3.87;;;;;;;20.98;85.45;100075.91;6247953;28;20046;-74
2021/08/11 01:41:00;;;;;;;6.38;3.30;;;;;;;20.92;85.70;100072.09;6231605;28;20180;-74
2021/08/11 01:44:03;;;;;;;5.63;3.40;;;;;;;20.91;85.87;100067.75;6248924;28;20048;-74
2021/08/11 01:47:08;;;;;;;6.25;3.25;;;;;;;20.87;86.80;100075.19;6248924;28;20041;-74
2021/08/11 01:50:12;;;;;;;8.25;3.63;;;;;;;20.82;87.39;100064.25;6248777;28;20041;-75
2021/08/11 01:53:18;;;;;;;5.68;3.45;;;;;;;20.80;86.87;100066.25;6248710;28;20456;-74
2021/08/11 01:56:19;;;;;;;6.78;3.17;;;;;;;20.78;87.22;100065.56;6248696;28;20054;-75
2021/08/11 01:59:21;;;;;;;6.78;3.75;;;;;;;20.79;86.58;100061.09;6247664;28;20045;-74
2021/08/11 02:02:23;;;;;;;6.57;3.72;;;;;;;20.80;86.29;100066.25;6248705;28;20500;-74
2021/08/11 02:05:28;;;;;;;5.75;4.00;;;;;;;20.77;86.67;100069.19;6230972;28;20045;-75
2021/08/11 02:08:30;;;;;;;7.95;3.90;;;;;;;20.76;86.40;100075.50;6231086;28;20135;-74
2021/08/11 02:11:37;;;;;;;4.28;3.33;;;;;;;20.69;86.79;100072.66;6230802;28;20044;-74
2021/08/11 02:14:40;;;;;;;5.03;3.67;;;;;;;20.70;86.15;100076.13;6248157;28;20049;-74
2021/08/11 02:17:41;;;;;;;8.50;3.88;;;;;;;20.64;87.06;100076.78;6230757;28;20042;-74
2021/08/11 02:20:42;;;;;;;5.78;3.35;;;;;;;20.60;86.37;100089.50;6247126;28;20038;-75
2021/08/11 02:23:43;;;;;;;7.70;3.77;;;;;;;20.61;86.52;100092.97;6248568;28;20067;-75
2021/08/11 02:27:13;;;;;;;7.83;3.60;;;;;;;20.61;85.92;100101.78;6248288;28;20045;-74
2021/08/11 02:30:19;;;;;;;5.60;3.35;;;;;;;20.53;85.64;100091.94;6227210;28;20148;-75
2021/08/11 02:33:34;;;;;;;6.57;3.67;;;;;;;20.52;85.27;100086.78;6247210;28;20393;-75
2021/08/11 02:36:47;;;;;;;5.38;3.83;;;;;;;20.44;85.94;100082.25;6248153;28;20049;-75
2021/08/11 02:40:18;;;;;;;4.85;3.53;;;;;;;20.44;86.53;100076.94;6247752;28;20045;-75
2021/08/11 02:43:36;;;;;;;6.50;3.70;;;;;;;20.42;87.61;100086.06;6246081;28;20096;-75
2021/08/11 02:46:40;;;;;;;4.72;3.55;;;;;;;20.40;87.95;100080.91;6246274;28;20381;-74
2021/08/11 02:49:43;;;;;;;4.05;3.42;;;;;;;20.34;88.33;100084.19;6246271;28;20045;-74
2021/08/11 02:52:45;;;;;;;6.40;3.50;;;;;;;20.35;88.57;100085.84;6246157;28;20076;-74
2021/08/11 02:55:46;;;;;;;5.97;3.75;;;;;;;20.36;87.94;100078.72;6213707;28;20507;-74
2021/08/11 02:58:47;;;;;;;7.70;3.83;;;;;;;20.35;87.91;100082.38;6246047;28;20121;-75
2021/08/11 03:01:49;;;;;;;6.73;3.73;;;;;;;20.32;88.03;100092.31;6246116;28;20045;-74
2021/08/11 03:04:51;;;;;;;6.13;3.60;;;;;;;20.27;87.25;100099.88;6229087;28;20073;-74
2021/08/11 03:07:52;;;;;;;4.70;3.35;;;;;;;20.24;87.29;100088.75;6246917;28;20073;-74
2021/08/11 03:10:52;;;;;;;6.43;3.75;;;;;;;20.25;87.90;100098.38;6229378;28;20068;-74
2021/08/11 03:13:55;;;;;;;9.40;4.20;;;;;;;20.31;88.05;100105.69;6246878;28;20492;-74
2021/08/11 03:16:56;;;;;;;8.02;3.85;;;;;;;20.26;89.24;100102.66;6245672;28;20191;-75
2021/08/11 03:19:57;;;;;;;5.37;3.83;;;;;;;20.25;88.87;100103.66;6229264;28;20476;-74
2021/08/11 03:22:57;;;;;;;6.43;4.03;;;;;;;20.25;87.61;100101.84;6229348;28;20053;-75
2021/08/11 03:25:58;;;;;;;8.27;3.97;;;;;;;20.27;87.83;100105.16;6228845;28;20369;-75
2021/08/11 03:29:01;;;;;;;6.87;3.97;;;;;;;20.28;88.55;100104.19;6246687;28;20057;-74
2021/08/11 03:32:02;;;;;;;8.77;4.15;;;;;;;20.21;89.64;100102.31;6245850;28;20041;-74
2021/08/11 03:35:03;;;;;;;5.90;4.13;;;;;;;20.28;88.72;100108.63;6245188;28;20088;-74
2021/08/11 03:38:04;;;;;;;8.52;5.10;;;;;;;20.24;86.92;100108.16;6245334;28;20508;-74
2021/08/11 03:41:05;;;;;;;11.27;5.23;;;;;;;20.25;86.54;100109.78;6245191;28;20045;-75
2021/08/11 03:44:06;;;;;;;10.67;6.63;;;;;;;20.32;83.42;100116.16;6228507;28;20607;-75
2021/08/11 03:47:06;;;;;;;7.47;6.53;;;;;;;20.40;81.39;100114.53;6246162;28;20072;-74
2021/08/11 03:50:10;;;;;;;8.60;6.60;;;;;;;20.50;78.73;100104.66;6246068;28;20727;-74
2021/08/11 03:53:11;;;;;;;12.52;6.13;;;;;;;20.57;77.27;100111.00;6228895;28;20073;-74
2021/08/11 03:56:12;;;;;;;9.05;6.18;;;;;;;20.65;79.29;100102.28;6244226;28;20045;-75
2021/08/11 03:59:13;;;;;;;7.80;5.67;;;;;;;20.65;84.34;100105.78;6228371;28;20048;-74
2021/08/11 04:02:13;;;;;;;8.77;6.20;;;;;;;20.71;81.96;100104.28;6244785;28;20037;-74
2021/08/11 04:05:14;;;;;;;10.47;5.97;;;;;;;20.71;78.34;100099.84;6244496;28;20507;-74
2021/08/11 04:08:15;;;;;;;9.70;6.30;;;;;;;20.71;79.50;100109.59;6245781;28;20092;-74
2021/08/11 04:11:16;;;;;;;11.60;6.33;;;;;;;20.74;79.91;100109.31;6228237;28;20073;-75
2021/08/11 04:14:17;;;;;;;7.83;6.00;;;;;;;20.78;82.40;100113.28;6245715;28;20046;-74
2021/08/11 04:17:17;;;;;;;12.57;6.33;;;;;;;20.82;79.90;100106.69;6228337;28;20115;-74
2021/08/11 04:20:20;;;;;;;9.73;6.03;;;;;;;20.84;78.13;100114.50;6243970;28;20444;-75
2021/08/11 04:23:21;;;;;;;12.05;6.30;;;;;;;20.91;76.64;100107.53;6244428;28;20128;-74
2021/08/11 04:26:21;;;;;;;8.70;6.00;;;;;;;20.98;76.05;100116.53;6244405;28;20042;-74
2021/08/11 04:29:22;;;;;;;15.93;6.13;;;;;;;21.08;79.73;100122.53;6245719;28;20551;-75
2021/08/11 04:32:23;;;;;;;8.93;5.40;;;;;;;21.12;80.12;100121.22;6228103;28;20046;-75
2021/08/11 04:35:24;;;;;;;9.87;5.67;;;;;;;21.12;79.98;100137.13;6245507;28;20041;-75
2021/08/11 04:38:24;;;;;;;8.10;4.93;;;;;;;21.14;78.24;100131.66;6245101;28;20042;-76
2021/08/11 04:41:25;;;;;;;10.53;5.33;;;;;;;21.12;78.21;100133.66;6244420;28;20125;-76
2021/08/11 04:44:26;;;;;;;6.95;4.85;;;;;;;21.13;78.22;100132.69;6244334;28;20049;-77
2021/08/11 04:47:27;;;;;;;5.93;4.57;;;;;;;21.08;79.34;100125.19;6227702;28;20069;-75
2021/08/11 04:50:28;;;;;;;10.03;5.67;;;;;;;21.09;79.99;100132.16;6244220;28;20042;-75
2021/08/11 04:53:28;;;;;;;9.67;5.30;;;;;;;21.12;80.97;100139.78;6245329;28;20038;-74
2021/08/11 04:56:29;;;;;;;11.67;5.30;;;;;;;21.15;81.20;100141.31;6244059;28;20411;-74
2021/08/11 04:59:29;;;;;;;10.80;5.10;;;;;;;21.20;81.80;100133.69;6244096;28;20049;-74
2021/08/11 05:02:32;;;;;;;7.53;5.20;;;;;;;21.23;82.44;100151.09;6241110;28;20084;-74
2021/08/11 05:05:33;;;;;;;12.07;5.38;;;;;;;21.26;77.72;100140.19;6220604;28;20046;-75
2021/08/11 05:08:35;;;;;;;12.37;5.57;;;;;;;21.32;78.03;100143.00;6223369;28;20099;-74
2021/08/11 05:11:36;;;;;;;10.50;5.18;;;;;;;21.40;81.20;100144.03;6224273;28;20053;-74
2021/08/11 05:14:37;;;;;;;11.90;5.07;;;;;;;21.43;76.81;100141.09;6207713;28;20050;-75
2021/08/11 05:17:38;;;;;;;7.05;4.60;;;;;;;21.47;75.98;100137.94;6207780;28;20041;-75
2021/08/11 05:20:39;;;;;;;7.97;4.18;;;;;;;21.57;78.31;100144.94;6223918;28;20088;-75
2021/08/11 05:23:40;;;;;;;16.13;5.10;;;;;;;21.63;78.16;100150.41;6223810;28;20441;-74
2021/08/11 05:26:41;;;;;;;10.20;4.60;;;;;;;21.67;76.71;100141.13;6223491;28;20053;-75
2021/08/11 05:29:44;;;;;;;9.93;4.75;;;;;;;21.75;72.75;100139.50;6230525;28;20040;-75
2021/08/11 05:32:45;;;;;;;13.20;4.72;;;;;;;21.87;71.46;100152.28;6249073;28;20045;-74
2021/08/11 05:35:45;;;;;;;10.03;4.17;;;;;;;21.93;74.87;100148.16;6249094;28;20530;-75
2021/08/11 05:38:46;;;;;;;12.13;4.67;;;;;;;21.97;75.51;100157.47;6223905;28;20547;-75
2021/08/11 05:41:47;;;;;;;17.97;4.50;;;;;;;21.98;75.56;100161.75;6224013;28;20049;-75
2021/08/11 05:44:50;;;;;;;18.93;4.67;;;;;;;22.10;71.28;100164.94;6223209;28;20033;-75
2021/08/11 05:47:50;;;;;;;9.13;4.50;;;;;;;22.14;72.76;100164.41;6225306;28;20168;-74
2021/08/11 05:50:51;;;;;;;13.77;4.20;;;;;;;22.23;70.09;100167.94;6190777;28;20050;-75
2021/08/11 05:53:52;;;;;;;8.80;4.50;;;;;;;22.28;71.72;100156.81;6223046;28;20038;-75
2021/08/11 05:56:53;;;;;;;7.33;4.33;;;;;;;22.32;72.93;100152.81;6222896;28;20378;-75
2021/08/11 05:59:53;;;;;;;6.83;3.80;;;;;;;22.35;73.06;100151.66;6222821;28;20128;-75
2021/08/11 06:02:57;;;;;;;7.00;3.67;;;;;;;22.38;73.13;100160.09;6223958;28;20477;-75
2021/08/11 06:05:57;;;;;;;7.75;3.88;;;;;;;22.45;69.82;100153.13;6222390;28;20046;-75
2021/08/11 06:08:58;;;;;;;5.43;3.37;;;;;;;22.55;67.89;100155.63;6206146;28;20065;-74
2021/08/11 06:11:59;;;;;;;12.67;3.33;;;;;;;22.72;65.02;100156.41;6222503;28;20493;-76
2021/08/11 06:15:00;;;;;;;10.43;3.33;;;;;;;22.73;67.79;100152.75;6190278;28;20060;-75
2021/08/11 06:18:01;;;;;;;9.20;5.30;;;;;;;22.75;67.63;100150.75;6221869;28;20038;-76
2021/08/11 06:21:02;;;;;;;7.57;3.27;;;;;;;22.78;70.35;100147.75;6222199;28;20069;-75
2021/08/11 06:24:03;;;;;;;7.50;3.38;;;;;;;22.86;69.03;100150.38;6223342;28;20069;-76
2021/08/11 06:27:04;;;;;;;16.23;3.55;;;;;;;22.94;67.88;100150.38;6223212;28;20038;-76
2021/08/11 06:30:06;;;;;;;15.50;3.47;;;;;;;22.98;65.64;100150.84;6222152;28;20049;-76
2021/08/11 06:33:07;;;;;;;7.68;3.17;;;;;;;23.02;65.19;100148.69;6223855;28;20096;-76
2021/08/11 06:36:08;;;;;;;6.37;3.20;;;;;;;23.05;67.20;100148.38;6223452;28;20042;-75
2021/08/11 06:39:09;;;;;;;14.47;3.13;;;;;;;23.09;66.11;100139.84;6189684;28;20041;-75
2021/08/11 06:42:10;;;;;;;6.43;3.10;;;;;;;23.20;63.81;100151.13;6221883;28;20038;-75
2021/08/11 06:45:12;;;;;;;8.70;2.92;;;;;;;23.26;64.32;100148.59;6222913;28;20542;-75
2021/08/11 06:48:13;;;;;;;5.60;2.97;;;;;;;23.29;64.87;100142.94;6205520;28;20482;-75
2021/08/11 06:51:14;;;;;;;8.03;2.93;;;;;;;23.37;65.43;100138.56;6205246;28;20278;-75
2021/08/11 06:54:15;;;;;;;6.70;3.00;;;;;;;23.38;66.21;100143.72;6189161;28;20073;-75
2021/08/11 06:57:16;;;;;;;12.82;3.17;;;;;;;23.42;61.86;100150.34;6221531;28;20061;-76
2021/08/11 07:00:18;;;;;;;12.53;2.83;;;;;;;23.60;60.35;100143.94;6221273;28;20037;-76
2021/08/11 07:03:21;;;;;;;9.30;2.92;;;;;;;23.65;61.10;100154.88;6221355;28;20100;-74
2021/08/11 07:06:22;;;;;;;7.10;2.95;;;;;;;23.71;58.95;100151.50;6221061;28;20133;-76
2021/08/11 07:09:24;;;;;;;15.40;3.00;;;;;;;23.74;61.65;100153.81;6221220;28;20420;-75
2021/08/11 07:12:25;;;;;;;12.43;2.83;;;;;;;23.74;60.55;100152.00;6204995;28;20042;-76
2021/08/11 07:15:25;;;;;;;10.88;2.75;;;;;;;23.74;61.64;100148.47;6188733;28;20053;-76
2021/08/11 07:18:26;;;;;;;14.27;3.23;;;;;;;23.77;60.80;100147.34;6204790;28;20060;-76
2021/08/11 07:21:27;;;;;;;5.33;2.97;;;;;;;23.79;62.55;100148.81;6221005;28;20066;-76
2021/08/11 07:24:28;;;;;;;21.17;3.07;;;;;;;23.86;60.71;100147.09;6220771;28;20064;-76
2021/08/11 07:27:28;;;;;;;8.88;2.80;;;;;;;23.93;60.00;100149.88;6221938;28;20180;-76
2021/08/11 07:30:29;;;;;;;9.57;2.83;;;;;;;24.05;57.32;100147.59;6203691;28;20124;-76
2021/08/11 07:33:30;;;;;;;6.47;2.63;;;;;;;24.08;59.83;100148.09;6204203;28;20080;-76
2021/08/11 07:36:30;;;;;;;15.50;2.80;;;;;;;24.11;60.00;100144.22;6220477;28;20493;-76
2021/08/11 07:39:31;;;;;;;5.10;2.30;;;;;;;24.16;59.11;100138.38;6220553;28;20042;-76
2021/08/11 07:42:32;;;;;;;15.90;2.80;;;;;;;24.24;56.46;100140.97;6220452;28;20181;-76
2021/08/11 07:45:33;;;;;;;22.10;2.93;;;;;;;24.30;58.76;100142.91;6188088;28;20295;-76
2021/08/11 07:48:34;;;;;;;5.72;2.70;;;;;;;24.33;60.08;100139.88;6220342;28;20042;-77
2021/08/11 07:51:35;;;;;;;;;;;;;;;24.38;58.21;100140.19;6222002;28;20104;-76
2021/08/11 07:54:36;;;;;;;7.70;3.72;;;;;;;24.42;58.38;100143.28;6220214;28;20319;-76
2021/08/11 07:57:38;;;;;;;8.37;3.40;;;;;;;24.42;60.09;100143.28;6171980;28;20599;-76
2021/08/11 08:00:39;;;;;;;12.05;3.45;;;;;;;24.44;60.06;100149.28;6220131;28;20048;-76
2021/08/11 08:03:39;;;;;;;13.10;5.93;;;;;;;24.56;60.70;100144.34;6203763;28;20046;-76
2021/08/11 08:06:40;;;;;;;27.35;7.68;;;;;;;24.68;59.96;100149.06;6219702;28;20042;-76
2021/08/11 08:09:41;;;;;;;23.53;6.60;;;;;;;24.74;59.15;100142.16;6207495;28;20109;-76
2021/08/11 08:12:43;;;;;;;11.00;3.30;;;;;;;24.83;55.44;100143.75;6203658;28;20073;-76
2021/08/11 08:15:44;;;;;;;10.60;2.88;;;;;;;25.00;55.52;100139.03;6203797;28;20052;-76
2021/08/11 08:18:44;;;;;;;11.57;2.70;;;;;;;24.93;59.93;100141.63;6203599;28;20045;-76
2021/08/11 08:21:45;;;;;;;9.55;2.72;;;;;;;25.10;52.89;100139.56;6219779;28;20287;-77
2021/08/11 08:24:46;;;;;;;11.13;3.30;;;;;;;25.10;55.49;100141.38;6219778;28;20045;-76
2021/08/11 08:27:49;;;;;;;14.63;3.00;;;;;;;25.13;54.30;100136.50;6220976;28;20041;-76
2021/08/11 08:30:50;;;;;;;10.40;2.60;;;;;;;25.27;51.52;100136.72;6204113;28;20054;-76
2021/08/11 08:33:51;;;;;;;3.63;2.33;;;;;;;25.24;52.49;100139.75;6188673;28;20045;-76
2021/08/11 08:36:51;;;;;;;4.77;2.67;;;;;;;25.27;55.14;100131.38;6188382;28;20137;-76
2021/08/11 08:39:52;;;;;;;13.60;2.60;;;;;;;25.38;54.42;100135.41;6203794;28;20042;-76
2021/08/11 08:42:53;;;;;;;3.43;2.60;;;;;;;25.57;51.58;100123.28;6222906;28;20137;-76
2021/08/11 08:45:54;;;;;;;5.72;2.30;;;;;;;25.61;49.96;100120.03;6224511;28;20104;-77
2021/08/11 08:48:56;;;;;;;8.13;2.15;;;;;;;25.59;52.02;100129.25;6208010;28;20061;-78
2021/08/11 08:51:57;;;;;;;6.38;2.70;;;;;;;25.74;50.30;100122.03;6225537;28;20066;-78
2021/08/11 08:54:59;;;;;;;7.72;2.60;;;;;;;25.69;55.00;100116.41;6207907;28;20485;-77
2021/08/11 08:58:02;;;;;;;9.30;2.40;;;;;;;25.68;54.22;100114.75;6191699;28;20034;-77
2021/08/11 09:01:02;;;;;;;6.63;2.45;;;;;;;25.76;53.31;100116.47;6224248;28;20038;-78
2021/08/11 09:04:03;;;;;;;4.83;2.50;;;;;;;25.81;48.72;100116.72;6207654;28;20559;-78
2021/08/11 09:07:06;;;;;;;11.10;2.45;;;;;;;25.80;53.05;100120.41;6223941;28;20151;-78
2021/08/11 09:10:30;;;;;;;7.63;2.15;;;;;;;25.92;50.69;100121.56;6223929;28;20042;-78
2021/08/11 09:13:31;;;;;;;7.15;2.55;;;;;;;26.00;53.33;100115.28;6225034;28;20420;-78
2021/08/11 09:16:31;;;;;;;4.43;2.50;;;;;;;26.08;49.51;100112.47;6207469;28;20072;-78
2021/08/11 09:19:44;;;;;;;5.25;2.13;;;;;;;26.19;49.44;100103.09;6223762;28;20060;-78
2021/08/11 09:22:46;;;;;;;8.13;2.70;;;;;;;26.30;48.39;100113.25;6223659;28;20030;-78
2021/08/11 09:26:02;;;;;;;6.60;2.38;;;;;;;26.36;51.27;100108.94;6223444;28;20107;-77
2021/08/11 09:29:06;;;;;;;7.10;2.72;;;;;;;26.32;48.94;100104.00;6224693;28;20042;-78
2021/08/11 09:32:07;;;;;;;5.32;2.40;;;;;;;26.29;50.62;100104.38;6224700;28;20091;-78
2021/08/11 09:35:08;;;;;;;;;;;;;;;26.25;52.35;100113.84;6207383;28;20144;-78
2021/08/11 09:38:13;;;;;;;5.57;2.73;;;;;;;26.30;52.33;100107.91;6224583;28;19921;-78
2021/08/11 09:41:14;;;;;;;7.97;2.30;;;;;;;26.20;53.06;100097.53;6224434;28;20041;-77
2021/08/11 09:44:15;;;;;;;5.10;2.30;;;;;;;26.28;54.93;100107.28;6206883;28;20508;-76
2021/08/11 09:47:17;;;;;;;5.38;2.30;;;;;;;26.36;51.20;100111.63;6223072;28;20041;-76
2021/08/11 09:50:18;;;;;;;12.43;2.60;;;;;;;26.47;49.81;100109.25;6223038;28;20045;-76
2021/08/11 09:53:32;;;;;;;9.85;2.33;;;;;;;26.62;51.60;100111.81;6222017;28;20049;-76
2021/08/11 09:56:35;;;;;;;4.57;2.22;;;;;;;26.65;51.10;100108.78;6224071;28;20053;-76
2021/08/11 10:00:00;;;;;;;6.55;2.20;;;;;;;26.69;50.67;100103.84;6222765;28;20045;-76
2021/08/11 10:03:03;;;;;;;13.88;2.22;;;;;;;26.69;52.46;100103.84;6222971;28;20581;-76
2021/08/11 10:06:04;;;;;;;8.55;2.70;;;;;;;26.67;51.33;100096.03;6223668;28;20099;-77
2021/08/11 10:09:26;;;;;;;6.82;2.70;;;;;;;26.69;50.28;100104.69;6223651;28;20057;-77
2021/08/11 10:12:33;;;;;;;6.28;2.50;;;;;;;26.74;49.79;100109.44;6222497;28;20042;-77
2021/08/11 10:15:34;;;;;;;2.80;2.10;;;;;;;26.73;49.64;100107.78;6223673;28;20042;-77
2021/08/11 10:18:38;;;;;;;4.57;2.42;;;;;;;26.82;51.77;100105.78;6206045;28;20053;-77
2021/08/11 10:21:49;;;;;;;5.68;2.65;;;;;;;26.78;50.96;100105.34;6222389;28;20472;-77
2021/08/11 10:24:52;;;;;;;3.75;2.20;;;;;;;26.83;51.85;100108.25;6222094;28;20045;-77
2021/08/11 10:27:53;;;;;;;6.85;2.60;;;;;;;26.91;51.03;100104.56;6223637;28;20042;-77
2021/08/11 10:30:54;;;;;;;4.30;2.20;;;;;;;27.11;51.62;100110.00;6206203;28;20045;-77
2021/08/11 10:33:55;;;;;;;5.13;2.60;;;;;;;27.03;53.03;100105.66;6190108;28;20076;-77
2021/08/11 10:36:57;;;;;;;3.15;2.00;;;;;;;27.09;51.17;100104.03;6221822;28;20129;-77
2021/08/11 10:40:00;;;;;;;6.85;2.40;;;;;;;27.18;50.93;100104.66;6223013;28;20042;-77
2021/08/11 10:43:01;;;;;;;4.57;2.50;;;;;;;27.21;51.70;100098.94;6221819;28;20053;-77
2021/08/11 10:46:13;;;;;;;8.95;2.67;;;;;;;27.21;51.96;100106.97;6222149;28;20042;-78
2021/08/11 10:49:17;;;;;;;5.80;2.72;;;;;;;27.19;51.65;100104.47;6221930;28;20069;-77
2021/08/11 10:52:18;;;;;;;6.85;2.60;;;;;;;27.19;53.90;100101.78;6221583;28;20136;-77
2021/08/11 10:55:40;;;;;;;10.15;2.58;;;;;;;27.29;52.25;100093.41;6222743;28;20050;-77
2021/08/11 10:58:44;;;;;;;6.57;2.30;;;;;;;27.31;50.29;100094.84;6221417;28;20057;-77
2021/08/11 11:01:45;;;;;;;6.38;2.40;;;;;;;27.39;49.40;100095.72;6221371;28;20045;-77
2021/08/11 11:04:46;;;;;;;4.65;2.38;;;;;;;27.43;50.30;100089.75;6204830;28;20484;-77
2021/08/11 11:08:06;;;;;;;;;;;;;;;27.45;50.25;100093.03;6230030;28;20061;-77
2021/08/11 11:11:28;;;;;;;8.05;2.50;;;;;;;27.48;49.68;100091.81;6231326;28;19921;-78
2021/08/11 11:14:58;;;;;;;3.95;2.30;;;;;;;27.51;50.64;100089.56;6229641;28;20046;-78
2021/08/11 11:18:20;;;;;;;4.25;2.42;;;;;;;27.64;49.78;100093.28;6219047;28;20068;-77
2021/08/11 11:21:21;;;;;;;6.72;2.33;;;;;;;27.85;45.11;100079.69;6242194;28;20044;-77
2021/08/11 11:24:47;;;;;;;8.80;2.38;;;;;;;27.95;46.62;100081.97;6233678;28;20358;-77
2021/08/11 11:27:55;;;;;;;6.28;2.28;;;;;;;28.05;46.11;100077.03;6231301;28;20041;-76
2021/08/11 11:30:56;;;;;;;9.98;2.60;;;;;;;28.21;46.51;100081.13;6232993;28;20120;-77
2021/08/11 11:34:25;;;;;;;5.22;2.50;;;;;;;28.18;47.29;100070.00;6222971;28;20041;-77
2021/08/11 11:37:26;;;;;;;2.92;2.17;;;;;;;28.33;47.12;100071.44;6246152;28;20045;-77
2021/08/11 11:40:27;;;;;;;7.45;2.50;;;;;;;28.68;45.76;100067.63;6246221;28;20045;-77
2021/08/11 11:43:30;;;;;;;4.45;2.63;;;;;;;30.15;43.20;100056.78;6245037;28;20499;-77
2021/08/11 11:46:47;;;;;;;3.13;2.50;;;;;;;32.31;34.26;100056.06;6228365;28;20115;-77
2021/08/11 11:50:19;;;;;;;3.80;2.33;;;;;;;33.71;34.10;100055.00;6244725;28;20033;-77
2021/08/11 11:53:25;;;;;;;3.83;2.30;;;;;;;34.05;29.54;100055.75;6228629;28;20061;-77
2021/08/11 11:56:28;;;;;;;2.70;2.20;;;;;;;34.17;29.74;100052.97;6244716;28;20447;-78
2021/08/11 11:59:29;;;;;;;3.90;1.95;;;;;;;34.23;29.26;100046.56;6244551;28;20034;-78
2021/08/11 12:02:31;;;;;;;3.70;2.30;;;;;;;34.29;30.39;100042.06;6211997;28;20095;-75
2021/08/11 12:05:49;;;;;;;3.17;2.30;;;;;;;34.14;32.17;100047.25;6245589;28;20041;-75
2021/08/11 12:08:56;;;;;;;6.28;2.55;;;;;;;34.65;33.94;100042.50;6245540;28;20100;-76
2021/08/11 12:11:57;;;;;;;4.22;2.10;;;;;;;34.64;31.71;100033.56;6244443;28;20046;-76
2021/08/11 12:15:17;;;;;;;3.08;2.15;;;;;;;34.29;29.62;100031.22;6238653;28;20046;-75
2021/08/11 12:18:18;;;;;;;;;;;;;;;32.96;32.75;100023.63;6244403;28;20103;-76
2021/08/11 12:21:20;;;;;;;4.35;2.35;;;;;;;32.05;33.83;100032.28;6228122;28;19925;-75
2021/08/11 12:24:21;;;;;;;7.80;2.50;;;;;;;31.59;35.18;100031.16;6245754;28;20103;-77
2021/08/11 12:27:21;;;;;;;3.97;2.50;;;;;;;33.76;31.18;100038.00;6245148;28;20042;-78
2021/08/11 12:30:23;;;;;;;4.82;2.50;;;;;;;34.62;32.56;100029.47;6211792;28;20175;-78
2021/08/11 12:33:26;;;;;;;7.32;2.45;;;;;;;33.86;30.63;100027.34;6228012;28;20133;-76
2021/08/11 12:36:31;;;;;;;3.72;2.35;;;;;;;33.86;31.13;100028.16;6245330;28;20085;-76
2021/08/11 12:39:36;;;;;;;3.72;2.22;;;;;;;33.49;31.87;100017.00;6227809;28;20512;-76
2021/08/11 12:42:53;;;;;;;5.80;2.70;;;;;;;32.95;30.04;100020.09;6244098;28;20045;-78
2021/08/11 12:45:54;;;;;;;4.95;2.45;;;;;;;32.77;30.98;100018.41;6211401;28;20083;-75
2021/08/11 12:49:22;;;;;;;3.67;2.38;;;;;;;32.41;33.98;100019.53;6245274;28;20038;-75
2021/08/11 12:52:25;;;;;;;7.97;2.67;;;;;;;32.16;33.56;100017.94;6243951;28;20037;-77
2021/08/11 12:55:31;;;;;;;7.65;2.50;;;;;;;32.13;32.58;100015.72;6227846;28;20120;-77
2021/08/11 12:58:58;;;;;;;4.70;2.50;;;;;;;31.80;34.65;100011.72;6211265;28;20439;-76
2021/08/11 13:01:59;;;;;;;4.13;2.55;;;;;;;31.74;35.88;100007.28;6242165;28;20066;-77
2021/08/11 13:05:11;;;;;;;4.68;2.50;;;;;;;31.56;36.52;99997.41;6227373;28;20050;-77
2021/08/11 13:08:12;;;;;;;3.60;2.53;;;;;;;31.14;36.20;99994.72;6243780;28;20501;-77
2021/08/11 13:11:13;;;;;;;4.38;2.53;;;;;;;30.88;33.44;100002.13;6244896;28;20038;-78
2021/08/11 13:14:50;;;;;;;6.18;2.30;;;;;;;30.89;34.45;99984.94;6228117;28;20050;-78
2021/08/11 13:17:53;;;;;;;3.97;2.22;;;;;;;30.96;33.76;99990.22;6243619;28;20049;-78
2021/08/11 13:20:54;;;;;;;4.63;2.15;;;;;;;31.00;35.80;99990.59;6243564;28;20037;-78
2021/08/11 13:23:54;;;;;;;;;;;;;;;31.08;33.75;99990.25;6227714;28;20107;-78
2021/08/11 13:26:56;;;;;;;2.80;2.10;;;;;;;30.93;37.88;99985.31;6227188;28;19921;-78
2021/08/11 13:29:58;;;;;;;6.07;2.25;;;;;;;31.12;34.23;99992.25;6246551;28;20432;-78
2021/08/11 13:33:01;;;;;;;6.20;2.20;;;;;;;31.12;35.21;99986.06;6249165;28;20049;-78
2021/08/11 13:36:02;;;;;;;3.97;1.92;;;;;;;31.15;32.49;99988.28;6231577;28;20053;-78
2021/08/11 13:39:03;;;;;;;4.00;2.00;;;;;;;31.05;31.38;99979.94;6248898;28;20069;-78
2021/08/11 13:42:04;;;;;;;;;;;;;;;30.83;34.49;99969.66;6248270;28;20484;-78
2021/08/11 13:45:06;;;;;;;3.60;2.45;;;;;;;30.85;35.52;99967.56;6247694;28;20281;-78
2021/08/11 13:48:07;;;;;;;5.88;2.40;;;;;;;30.87;37.21;99968.19;6231343;28;20041;-78
2021/08/11 13:51:07;;;;;;;;;;;;;;;30.93;36.42;99961.88;6247930;28;20041;-78
2021/08/11 13:54:08;;;;;;;3.43;2.27;;;;;;;30.97;35.13;99969.47;6231426;28;19979;-78
2021/08/11 13:57:09;;;;;;;;;;;;;;;30.88;35.93;99977.88;6247891;28;20045;-78
2021/08/11 14:00:10;;;;;;;3.60;2.10;;;;;;;30.78;36.67;99974.91;6231298;28;19947;-79
2021/08/11 14:03:11;;;;;;;4.80;2.60;;;;;;;30.67;37.28;99978.38;6230946;28;20045;-78
2021/08/11 14:06:13;;;;;;;;;;;;;;;30.70;36.67;99992.22;6248794;28;20044;-77
2021/08/11 14:09:13;;;;;;;10.18;2.53;;;;;;;30.65;37.18;99983.16;6230769;28;19932;-78
2021/08/11 14:12:14;;;;;;;4.18;2.00;;;;;;;30.50;37.56;99978.19;6221165;28;20058;-78
2021/08/11 14:15:15;;;;;;;;;;;;;;;30.27;37.17;99971.59;6190655;28;20049;-77
2021/08/11 14:18:16;;;;;;;3.25;2.08;;;;;;;30.15;38.40;99975.25;6206441;28;19953;-78